SLTL weather

Toldos Airport
Nor Lipez, Potosí Department, Bolivia

Public forecast

Using degrees Celsius for public forecast. Weather courtesy of forecast.io.

Closest aviation weather report (METAR) to Toldos Airport

Report is more than 6 hours old.

Closest report is Uyuni Airport, 47.2 nm (87.4 km) NNE. Retrieved 2019/10/11 00:00 UTC (6 days ago):

SLUY 110000Z 00000KT 9999 SCT017 11/M13 Q1031 A3045 656.2 HR17 AC

Closest aviation forecast (TAF) to Toldos Airport

Forecast is more than 12 hours old.

Closest forecast is Uyuni Airport, 47.2 nm (87.4 km) NNE. Retrieved 2019/08/28 06:35 UTC (2 months ago):

TAF SLUY 280435Z 2806/2906 02010KT 9999 NSC TX15/2820Z TNM11/2810Z BECMG 2816/2818 34015KT FEW025